Viroqua, Wisconsin
Current Conditions -  °F | °C
As of 3:15 AM on Monday 24 Nov 2014 (Local Time) from KY51 Reporting Station
Overcast Overcast  
Wind Chill: 27°   Ceiling: 300
Heat Index: 37°   Visibility: 5mi
Dew Point: 37°   Wind: 16mph
Humidity: 100%   Direction: 310°NW
Pressure: 29.14"   Gusts: 23mph
Location:  43.56°N, 90.89°W
Report Text: KY51 240915Z AUTO 31014G20KT 5SM OVC003 03/03 A2914 RMK AO1 T00250025
Loading
Personal Weather Stations






























Interactive Weather Map New forecast layout! Learn more

10-Day Weather Forecast

Advertisements
Track Severe Weather on mobile